createdAt,value
2023-04-20T00:00:54.175Z,81.77
2023-04-20T00:03:27.707Z,81.95
2023-04-20T00:06:01.688Z,81.32
2023-04-20T00:08:33.724Z,80.85
2023-04-20T00:11:05.989Z,80.98
2023-04-20T00:13:37.994Z,80.60
2023-04-20T00:16:10.574Z,81.09
2023-04-20T00:18:42.521Z,80.92
2023-04-20T00:21:15.109Z,81.09
2023-04-20T00:23:47.081Z,81.09
2023-04-20T00:26:20.034Z,81.28
2023-04-20T00:28:55.098Z,81.49
2023-04-20T00:31:27.210Z,81.37
2023-04-20T00:34:01.417Z,81.57
2023-04-20T00:36:33.637Z,81.77
2023-04-20T00:39:06.045Z,81.63
2023-04-20T00:41:38.179Z,82.25
2023-04-20T00:44:13.979Z,81.64
2023-04-20T00:46:46.053Z,81.91
2023-04-20T00:49:19.169Z,81.71
2023-04-20T00:51:53.883Z,81.83
2023-04-20T00:54:26.383Z,81.80
2023-04-20T00:56:59.468Z,81.87
2023-04-20T00:59:32.199Z,81.77
2023-04-20T01:02:04.268Z,81.75
2023-04-20T01:04:37.604Z,81.46
2023-04-20T01:07:09.813Z,81.78
2023-04-20T01:09:43.107Z,81.77
2023-04-20T01:12:15.048Z,82.12
2023-04-20T01:14:48.396Z,81.81
2023-04-20T01:17:22.416Z,81.64
2023-04-20T01:19:54.450Z,81.37
2023-04-20T01:22:26.383Z,82.06
2023-04-20T01:24:58.323Z,81.85
2023-04-20T01:27:31.951Z,82.38
2023-04-20T01:30:08.112Z,82.07
2023-04-20T01:32:41.503Z,82.21
2023-04-20T01:35:13.993Z,81.65
2023-04-20T01:37:46.084Z,81.68
2023-04-20T01:40:18.157Z,81.44
2023-04-20T01:42:50.210Z,81.57
2023-04-20T01:45:22.422Z,81.46
2023-04-20T01:47:54.435Z,81.21
2023-04-20T01:50:26.362Z,81.26
2023-04-20T01:52:58.342Z,80.94
2023-04-20T01:55:30.336Z,80.78
2023-04-20T01:58:02.301Z,80.76
2023-04-20T02:00:34.354Z,80.72
2023-04-20T02:03:06.697Z,80.40
2023-04-20T02:05:38.969Z,80.03
2023-04-20T02:08:11.035Z,80.22
2023-04-20T02:10:44.803Z,80.66
2023-04-20T02:13:16.882Z,80.54
2023-04-20T02:15:50.413Z,80.58
2023-04-20T02:18:22.762Z,80.78
2023-04-20T02:20:54.718Z,80.99
2023-04-20T02:23:26.698Z,81.32
2023-04-20T02:26:00.797Z,81.07
2023-04-20T02:28:32.715Z,81.18
2023-04-20T02:31:04.656Z,81.45
2023-04-20T02:33:36.641Z,81.49
2023-04-20T02:36:09.424Z,82.11
2023-04-20T02:38:41.425Z,82.35
2023-04-20T02:41:13.355Z,82.39
2023-04-20T02:43:45.844Z,82.35
2023-04-20T02:46:18.628Z,82.49
2023-04-20T02:48:50.993Z,82.33
2023-04-20T02:51:23.120Z,82.18
2023-04-20T02:53:55.529Z,81.91
2023-04-20T02:56:31.819Z,82.25
2023-04-20T02:59:07.735Z,82.31
2023-04-20T03:01:55.735Z,82.78
2023-04-20T03:04:31.081Z,82.40
2023-04-20T03:07:09.599Z,82.20
2023-04-20T03:09:42.698Z,82.10
2023-04-20T03:12:34.879Z,82.24
2023-04-20T03:15:34.835Z,82.19
2023-04-20T03:18:28.749Z,82.89
2023-04-20T03:21:00.729Z,82.72
2023-04-20T03:23:33.931Z,82.88
2023-04-20T03:26:06.111Z,82.79
2023-04-20T03:28:46.999Z,82.36
2023-04-20T03:31:21.525Z,82.36
2023-04-20T03:33:54.035Z,82.34
2023-04-20T03:36:26.438Z,81.95
2023-04-20T03:38:58.516Z,82.30
2023-04-20T03:41:31.790Z,82.09
2023-04-20T03:44:03.951Z,82.08
2023-04-20T03:46:36.557Z,82.61
2023-04-20T03:49:08.565Z,82.37
2023-04-20T03:51:40.541Z,82.11
2023-04-20T03:54:12.484Z,82.15
2023-04-20T03:56:46.125Z,82.52
2023-04-20T03:59:18.392Z,82.41
2023-04-20T04:05:57.101Z,83.07
2023-04-20T04:09:41.014Z,83.28
2023-04-20T04:12:31.796Z,82.81
2023-04-20T04:15:04.289Z,82.36
2023-04-20T04:17:45.256Z,82.59
2023-04-20T04:20:17.981Z,82.66
2023-04-20T04:26:58.619Z,82.71
2023-04-20T04:29:31.795Z,82.41
2023-04-20T04:32:11.963Z,82.36
2023-04-20T04:34:45.158Z,82.00
2023-04-20T04:37:17.700Z,81.85
2023-04-20T04:39:53.950Z,81.97
2023-04-20T04:42:31.592Z,81.75
2023-04-20T04:45:05.303Z,81.82
2023-04-20T04:47:41.279Z,82.18
2023-04-20T04:50:14.559Z,82.68
2023-04-20T04:52:46.817Z,82.55
2023-04-20T04:55:19.164Z,82.58
2023-04-20T04:57:51.232Z,82.38
2023-04-20T05:00:25.342Z,81.58
2023-04-20T05:02:57.778Z,81.46
2023-04-20T05:05:35.927Z,81.79
2023-04-20T05:08:08.144Z,81.61
2023-04-20T05:10:40.702Z,81.68
2023-04-20T05:13:12.745Z,81.65
2023-04-20T05:15:44.800Z,81.63
2023-04-20T05:18:16.943Z,81.44
2023-04-20T05:20:48.896Z,81.53
2023-04-20T05:23:20.963Z,81.29
2023-04-20T05:25:52.986Z,80.90
2023-04-20T05:28:25.843Z,80.90
2023-04-20T05:30:57.958Z,80.70
2023-04-20T05:33:29.894Z,80.97
2023-04-20T05:36:02.019Z,80.89
2023-04-20T05:38:34.016Z,80.77
2023-04-20T05:41:06.686Z,80.57
2023-04-20T05:43:38.741Z,80.63
2023-04-20T05:46:11.080Z,80.46
2023-04-20T05:48:43.099Z,80.34
2023-04-20T05:51:15.467Z,80.05
2023-04-20T05:53:49.923Z,80.01
2023-04-20T05:56:22.179Z,79.81
2023-04-20T05:58:54.654Z,79.70
2023-04-20T06:01:26.744Z,79.38
2023-04-20T06:03:58.979Z,79.46
2023-04-20T06:06:31.684Z,79.54
2023-04-20T06:09:04.169Z,79.42
2023-04-20T06:11:37.062Z,79.41
2023-04-20T06:14:09.123Z,79.33
2023-04-20T06:16:41.193Z,79.14
2023-04-20T06:19:13.181Z,79.13
2023-04-20T06:21:45.243Z,78.68
2023-04-20T06:24:17.211Z,78.27
2023-04-20T06:26:49.203Z,77.77
2023-04-20T06:29:21.248Z,77.52
2023-04-20T06:31:53.357Z,77.79
2023-04-20T06:34:26.104Z,77.62
2023-04-20T06:36:58.181Z,77.49
2023-04-20T06:39:30.239Z,77.19
2023-04-20T06:42:02.838Z,76.50
2023-04-20T06:44:34.952Z,75.97
2023-04-20T06:47:07.786Z,75.08
2023-04-20T06:49:39.906Z,75.83
2023-04-20T06:52:11.863Z,75.35
2023-04-20T06:54:44.055Z,74.59
2023-04-20T06:57:16.099Z,74.73
2023-04-20T06:59:48.149Z,74.87
2023-04-20T07:02:20.264Z,74.25
2023-04-20T07:04:52.583Z,74.54
2023-04-20T07:07:24.831Z,74.52
2023-04-20T07:09:56.810Z,74.19
2023-04-20T07:12:28.838Z,73.38
2023-04-20T07:15:00.847Z,73.63
2023-04-20T07:17:32.973Z,73.65
2023-04-20T07:20:08.488Z,73.40
2023-04-20T07:22:41.323Z,72.93
2023-04-20T07:25:13.398Z,73.04
2023-04-20T07:27:45.454Z,73.56
2023-04-20T07:30:18.071Z,73.20
2023-04-20T07:32:50.092Z,72.39
2023-04-20T07:35:22.717Z,72.36
2023-04-20T07:37:54.696Z,72.07
2023-04-20T07:40:26.950Z,72.28
2023-04-20T07:42:59.116Z,71.94
2023-04-20T07:45:31.585Z,71.55
2023-04-20T07:48:05.710Z,71.25
2023-04-20T07:50:37.925Z,70.06
2023-04-20T07:53:10.102Z,68.31
2023-04-20T07:55:42.326Z,69.10
2023-04-20T07:58:16.434Z,68.75
2023-04-20T08:00:49.868Z,69.14
2023-04-20T08:03:22.073Z,68.22
2023-04-20T08:05:54.289Z,67.42
2023-04-20T08:08:26.436Z,68.70
2023-04-20T08:11:00.542Z,68.51
2023-04-20T08:13:32.626Z,69.00
2023-04-20T08:16:05.035Z,68.82
2023-04-20T08:18:37.089Z,68.78
2023-04-20T08:21:09.716Z,68.66
2023-04-20T08:23:42.121Z,68.79
2023-04-20T08:26:18.215Z,68.36
2023-04-20T08:28:50.369Z,67.84
2023-04-20T08:31:22.552Z,67.96
2023-04-20T08:33:56.908Z,67.63
2023-04-20T08:36:29.299Z,67.62
2023-04-20T08:39:10.348Z,67.29
2023-04-20T08:41:42.558Z,67.69
2023-04-20T08:44:14.991Z,67.58
2023-04-20T08:46:50.083Z,67.81
2023-04-20T08:49:22.755Z,66.66
2023-04-20T08:51:54.746Z,67.14
2023-04-20T08:54:27.317Z,66.35
2023-04-20T08:57:00.013Z,66.69
2023-04-20T08:59:32.703Z,66.74
2023-04-20T09:02:15.250Z,66.03
2023-04-20T09:04:49.534Z,66.41
2023-04-20T09:07:22.827Z,65.42
2023-04-20T09:09:59.252Z,65.28
2023-04-20T09:12:41.519Z,65.53
2023-04-20T09:15:25.015Z,64.83
2023-04-20T09:17:57.210Z,65.00
2023-04-20T09:20:34.435Z,64.62
2023-04-20T09:23:15.684Z,64.27
2023-04-20T09:25:52.650Z,64.11
2023-04-20T09:28:24.711Z,63.95
2023-04-20T09:30:56.773Z,62.84
2023-04-20T09:33:32.637Z,62.27
2023-04-20T09:36:08.048Z,60.24
2023-04-20T09:38:40.311Z,61.53
2023-04-20T09:41:12.625Z,62.21
2023-04-20T09:43:45.824Z,61.84
2023-04-20T09:46:17.925Z,62.19
2023-04-20T09:48:50.530Z,61.67
2023-04-20T09:51:22.967Z,61.29
2023-04-20T09:53:55.990Z,61.59
2023-04-20T09:56:29.056Z,61.47
2023-04-20T09:59:03.382Z,61.30
2023-04-20T10:01:38.340Z,61.15
2023-04-20T10:04:14.421Z,60.58
2023-04-20T10:07:03.439Z,59.39
2023-04-20T10:09:37.862Z,60.67
2023-04-20T10:12:12.696Z,60.30
2023-04-20T10:14:45.889Z,60.26
2023-04-20T10:17:18.340Z,59.91
2023-04-20T10:19:50.666Z,59.42
2023-04-20T10:22:33.491Z,59.74
2023-04-20T10:25:19.438Z,59.65
2023-04-20T10:28:04.604Z,59.62
2023-04-20T10:30:38.035Z,59.86
2023-04-20T10:33:13.847Z,59.22
2023-04-20T10:35:51.156Z,59.48
2023-04-20T10:38:33.729Z,58.52
2023-04-20T10:41:14.286Z,59.62
2023-04-20T10:43:46.369Z,58.51
2023-04-20T10:46:20.321Z,60.14
2023-04-20T10:48:57.949Z,59.72
2023-04-20T10:51:30.659Z,60.48
2023-04-20T10:54:07.903Z,60.95
2023-04-20T10:56:44.597Z,60.42
2023-04-20T10:59:18.681Z,61.01
2023-04-20T11:01:52.556Z,61.61
2023-04-20T11:04:33.333Z,61.20
2023-04-20T11:07:09.902Z,60.71
2023-04-20T11:09:43.258Z,60.31
2023-04-20T11:12:16.193Z,61.73
2023-04-20T11:14:55.870Z,62.06
2023-04-20T11:17:36.380Z,61.96
2023-04-20T11:20:11.605Z,62.05
2023-04-20T11:22:45.221Z,61.81
2023-04-20T11:25:17.527Z,60.82
2023-04-20T11:27:49.506Z,59.86
2023-04-20T11:30:21.769Z,60.31
2023-04-20T11:32:57.830Z,60.26
2023-04-20T11:35:37.211Z,60.49
2023-04-20T11:38:09.702Z,60.12
2023-04-20T11:40:42.125Z,60.57
2023-04-20T11:43:14.193Z,60.65
2023-04-20T11:45:46.918Z,60.42
2023-04-20T11:48:20.056Z,60.29
2023-04-20T11:50:52.514Z,59.23
2023-04-20T11:53:24.578Z,59.35
2023-04-20T11:55:56.893Z,60.30
2023-04-20T11:58:28.993Z,60.30
2023-04-20T12:01:01.385Z,59.72
2023-04-20T12:03:33.971Z,59.54
2023-04-20T12:06:06.412Z,59.51
2023-04-20T12:08:38.391Z,59.19
2023-04-20T12:11:10.472Z,58.36
2023-04-20T12:13:42.398Z,58.21
2023-04-20T12:16:14.498Z,57.09
2023-04-20T12:18:46.564Z,57.02
2023-04-20T12:21:18.725Z,56.91
2023-04-20T12:23:51.428Z,57.12
2023-04-20T12:26:37.449Z,57.13
2023-04-20T12:29:20.905Z,56.28
2023-04-20T12:31:53.168Z,56.80
2023-04-20T12:34:25.467Z,57.27
2023-04-20T12:36:57.520Z,57.64
2023-04-20T12:39:29.935Z,57.95
2023-04-20T12:42:02.593Z,57.81
2023-04-20T12:44:34.720Z,57.64
2023-04-20T12:47:06.810Z,57.40
2023-04-20T12:49:38.840Z,57.51
2023-04-20T12:52:10.986Z,57.28
2023-04-20T12:54:44.145Z,57.47
2023-04-20T12:57:17.133Z,57.72
2023-04-20T12:59:50.191Z,58.46
2023-04-20T13:02:24.693Z,59.06
2023-04-20T13:04:57.026Z,58.83
2023-04-20T13:07:29.117Z,58.06
2023-04-20T13:10:01.835Z,57.04
2023-04-20T13:12:33.776Z,54.95
2023-04-20T13:15:09.345Z,54.22
2023-04-20T13:17:40.262Z,52.20
2023-04-20T13:20:14.208Z,51.90
2023-04-20T13:22:54.690Z,50.49
2023-04-20T13:25:32.733Z,48.04
2023-04-20T13:28:06.546Z,46.49
2023-04-20T13:30:39.038Z,46.84
2023-04-20T13:33:11.443Z,43.03
2023-04-20T13:35:43.829Z,43.17
2023-04-20T13:38:16.021Z,42.37
2023-04-20T13:40:48.857Z,40.75
2023-04-20T13:43:21.815Z,41.54
2023-04-20T13:45:54.157Z,41.65
2023-04-20T13:48:26.440Z,43.23
2023-04-20T13:50:58.640Z,43.36
2023-04-20T13:53:30.772Z,43.60
2023-04-20T13:56:03.373Z,45.29
2023-04-20T13:58:35.607Z,45.38
2023-04-20T14:01:12.333Z,45.92
2023-04-20T14:03:44.655Z,45.91
2023-04-20T14:06:17.040Z,46.02
2023-04-20T14:08:49.166Z,45.11
2023-04-20T14:11:21.261Z,43.98
2023-04-20T14:13:53.303Z,43.31
2023-04-20T14:16:26.358Z,44.15
2023-04-20T14:18:58.647Z,44.98
2023-04-20T14:21:31.361Z,45.14
2023-04-20T14:24:03.602Z,45.43
2023-04-20T14:26:35.758Z,46.64
2023-04-20T14:29:08.005Z,47.11
2023-04-20T14:31:40.017Z,47.96
2023-04-20T14:34:13.339Z,48.08
2023-04-20T14:36:45.418Z,47.28
2023-04-20T14:39:20.405Z,44.83
2023-04-20T14:41:52.385Z,41.73
2023-04-20T14:44:24.343Z,39.94
2023-04-20T14:46:57.241Z,38.32
2023-04-20T14:49:29.494Z,38.67
2023-04-20T14:52:01.529Z,40.58
2023-04-20T14:54:33.653Z,42.09
2023-04-20T14:57:05.629Z,43.15
2023-04-20T14:59:41.595Z,44.20
2023-04-20T15:02:14.403Z,44.13
2023-04-20T15:04:46.781Z,45.68
2023-04-20T15:07:19.437Z,45.17
2023-04-20T15:09:51.585Z,42.74
2023-04-20T15:12:23.644Z,40.24
2023-04-20T15:14:55.690Z,37.68
2023-04-20T15:17:27.790Z,36.65
2023-04-20T15:19:59.760Z,34.92
2023-04-20T15:22:32.085Z,33.92
2023-04-20T15:25:04.130Z,32.17
2023-04-20T15:27:36.881Z,31.25
2023-04-20T15:30:10.992Z,31.49
2023-04-20T15:32:42.972Z,29.92
2023-04-20T15:35:15.006Z,30.52
2023-04-20T15:37:47.917Z,31.40
2023-04-20T15:40:21.560Z,33.40
2023-04-20T15:42:55.116Z,36.17
2023-04-20T15:45:27.196Z,37.21
2023-04-20T15:48:01.162Z,37.63
2023-04-20T15:50:33.649Z,38.60
2023-04-20T15:53:05.776Z,39.03
2023-04-20T15:55:40.824Z,39.99
2023-04-20T15:58:12.933Z,40.87
2023-04-20T16:00:45.093Z,41.60
2023-04-20T16:03:17.226Z,41.79
2023-04-20T16:05:49.443Z,42.37
2023-04-20T16:08:21.469Z,43.06
2023-04-20T16:10:55.055Z,43.22
2023-04-20T16:13:27.411Z,43.83
2023-04-20T16:15:59.455Z,44.18
2023-04-20T16:18:32.329Z,44.86
2023-04-20T16:21:04.444Z,45.27
2023-04-20T16:23:36.495Z,45.82
2023-04-20T16:26:08.723Z,45.44
2023-04-20T16:28:40.879Z,45.45
2023-04-20T16:31:13.046Z,45.61
2023-04-20T16:33:45.466Z,45.75
2023-04-20T16:36:17.523Z,46.31
2023-04-20T16:38:49.465Z,46.67
2023-04-20T16:41:21.865Z,46.99
2023-04-20T16:43:53.965Z,47.18
2023-04-20T16:46:26.053Z,47.36
2023-04-20T16:48:58.050Z,47.93
2023-04-20T16:51:30.203Z,47.75
2023-04-20T16:54:02.450Z,47.76
2023-04-20T16:56:34.552Z,48.81
2023-04-20T16:59:06.687Z,48.60
2023-04-20T17:01:38.749Z,48.22
2023-04-20T17:04:11.115Z,48.61
2023-04-20T17:06:43.284Z,48.76
2023-04-20T17:09:15.614Z,49.07
2023-04-20T17:11:47.618Z,49.11
2023-04-20T17:14:19.801Z,49.62
2023-04-20T17:16:54.449Z,49.44
2023-04-20T17:19:26.940Z,49.51
2023-04-20T17:22:03.558Z,49.89
2023-04-20T17:24:35.698Z,49.85
2023-04-20T17:27:07.725Z,49.90
2023-04-20T17:29:39.902Z,50.11
2023-04-20T17:32:12.529Z,50.32
2023-04-20T17:34:48.465Z,51.15
2023-04-20T17:37:21.357Z,51.78
2023-04-20T17:39:53.334Z,51.28
2023-04-20T17:42:25.268Z,52.21
2023-04-20T17:44:57.317Z,52.67
2023-04-20T17:47:31.252Z,53.40
2023-04-20T17:50:04.754Z,53.37
2023-04-20T17:52:36.861Z,53.46
2023-04-20T17:55:10.154Z,53.11
2023-04-20T17:57:42.589Z,53.51
2023-04-20T18:00:16.791Z,54.21
2023-04-20T18:02:48.803Z,53.81
2023-04-20T18:05:20.879Z,54.09
2023-04-20T18:07:52.896Z,54.66
2023-04-20T18:10:24.896Z,54.97
2023-04-20T18:12:56.933Z,55.68
2023-04-20T18:15:29.192Z,55.27
2023-04-20T18:18:01.305Z,55.18
2023-04-20T18:20:33.406Z,55.91
2023-04-20T18:23:05.606Z,57.23
2023-04-20T18:25:37.668Z,57.07
2023-04-20T18:28:09.842Z,56.98
2023-04-20T18:30:42.375Z,57.57
2023-04-20T18:33:15.540Z,59.37
2023-04-20T18:35:47.941Z,60.01
2023-04-20T18:38:19.932Z,59.51
2023-04-20T18:40:51.907Z,58.91
2023-04-20T18:43:23.824Z,58.98
2023-04-20T18:45:55.747Z,59.34
2023-04-20T18:48:27.794Z,59.38
2023-04-20T18:51:02.029Z,60.64
2023-04-20T18:53:34.503Z,60.51
2023-04-20T18:56:08.017Z,60.01
2023-04-20T18:58:41.736Z,59.79
2023-04-20T19:01:13.897Z,59.86
2023-04-20T19:03:48.044Z,59.85
2023-04-20T19:06:20.390Z,60.86
2023-04-20T19:08:52.435Z,61.63
2023-04-20T19:11:24.547Z,61.65
2023-04-20T19:13:56.585Z,62.17
2023-04-20T19:16:30.088Z,61.59
2023-04-20T19:19:04.266Z,61.78
2023-04-20T19:21:36.366Z,62.21
2023-04-20T19:24:09.149Z,62.84
2023-04-20T19:26:41.154Z,63.29
2023-04-20T19:29:13.390Z,62.87
2023-04-20T19:31:45.574Z,62.90
2023-04-20T19:34:17.877Z,63.09
2023-04-20T19:36:50.060Z,63.31
2023-04-20T19:39:22.132Z,63.61
2023-04-20T19:41:54.219Z,63.09
2023-04-20T19:44:26.521Z,63.61
2023-04-20T19:46:58.614Z,64.92
2023-04-20T19:49:30.699Z,63.84
2023-04-20T19:52:02.704Z,63.75
2023-04-20T19:54:34.846Z,63.56
2023-04-20T19:57:06.859Z,64.33
2023-04-20T19:59:40.296Z,65.14
2023-04-20T20:02:12.465Z,65.00
2023-04-20T20:04:44.808Z,65.93
2023-04-20T20:07:17.768Z,66.02
2023-04-20T20:09:49.693Z,66.43
2023-04-20T20:12:21.740Z,66.21
2023-04-20T20:14:53.944Z,66.15
2023-04-20T20:17:25.885Z,65.35
2023-04-20T20:19:58.295Z,65.49
2023-04-20T20:22:30.346Z,66.08
2023-04-20T20:25:02.344Z,65.87
2023-04-20T20:27:34.376Z,65.83
2023-04-20T20:30:07.895Z,66.00
2023-04-20T20:32:39.957Z,65.60
2023-04-20T20:35:13.249Z,66.88
2023-04-20T20:37:45.565Z,68.04
2023-04-20T20:40:17.573Z,67.78
2023-04-20T20:42:50.028Z,67.76
2023-04-20T20:45:22.226Z,67.66
2023-04-20T20:47:54.548Z,67.81
2023-04-20T20:50:28.058Z,68.78
2023-04-20T20:53:00.167Z,68.13
2023-04-20T20:55:32.222Z,68.13
2023-04-20T20:58:04.164Z,68.18
2023-04-20T21:00:36.390Z,69.76
2023-04-20T21:03:08.627Z,68.67
2023-04-20T21:05:40.877Z,67.76
2023-04-20T21:08:13.091Z,69.68
2023-04-20T21:10:45.412Z,68.62
2023-04-20T21:13:19.052Z,68.03
2023-04-20T21:15:51.096Z,67.45
2023-04-20T21:18:23.112Z,67.69
2023-04-20T21:20:55.108Z,67.56
2023-04-20T21:23:27.086Z,67.99
2023-04-20T21:25:59.049Z,68.73
2023-04-20T21:28:30.995Z,67.95
2023-04-20T21:31:03.422Z,69.64
2023-04-20T21:33:36.029Z,69.45
2023-04-20T21:36:09.132Z,69.28
2023-04-20T21:38:41.119Z,69.66
2023-04-20T21:41:13.273Z,69.03
2023-04-20T21:43:45.748Z,68.93
2023-04-20T21:46:18.548Z,69.09
2023-04-20T21:48:51.560Z,69.51
2023-04-20T21:51:23.663Z,69.25
2023-04-20T21:53:55.660Z,69.25
2023-04-20T21:56:27.759Z,69.95
2023-04-20T21:58:59.742Z,71.93
2023-04-20T22:01:31.863Z,71.93
2023-04-20T22:04:04.747Z,71.33
2023-04-20T22:06:37.180Z,70.39
2023-04-20T22:09:09.286Z,70.04
2023-04-20T22:11:41.543Z,69.68
2023-04-20T22:14:14.086Z,69.65
2023-04-20T22:16:46.237Z,69.75
2023-04-20T22:19:18.437Z,69.34
2023-04-20T22:21:50.677Z,69.49
2023-04-20T22:24:22.630Z,69.68
2023-04-20T22:26:54.673Z,70.02
2023-04-20T22:29:26.692Z,70.07
2023-04-20T22:31:58.678Z,71.49
2023-04-20T22:34:30.803Z,70.76
2023-04-20T22:37:02.935Z,72.10
2023-04-20T22:39:34.941Z,73.16
2023-04-20T22:42:07.216Z,72.08
2023-04-20T22:44:39.362Z,71.43
2023-04-20T22:47:11.424Z,72.10
2023-04-20T22:49:45.046Z,71.88
2023-04-20T22:52:17.123Z,71.22
2023-04-20T22:54:49.159Z,71.02
2023-04-20T22:57:21.356Z,72.12
2023-04-20T22:59:53.400Z,72.23
2023-04-20T23:02:25.543Z,71.93
2023-04-20T23:04:57.717Z,71.06
2023-04-20T23:07:29.667Z,71.23
2023-04-20T23:10:01.816Z,71.16
2023-04-20T23:12:33.833Z,71.14
2023-04-20T23:15:06.940Z,71.38
2023-04-20T23:17:38.953Z,71.75
2023-04-20T23:20:14.045Z,71.06
2023-04-20T23:22:46.370Z,71.34
2023-04-20T23:25:18.456Z,71.35
2023-04-20T23:27:50.425Z,71.50
2023-04-20T23:30:22.742Z,71.27
2023-04-20T23:32:54.947Z,71.41
2023-04-20T23:35:27.125Z,71.41
2023-04-20T23:37:59.105Z,71.29
2023-04-20T23:40:31.243Z,71.32
2023-04-20T23:43:03.359Z,71.12
2023-04-20T23:45:35.727Z,71.46
2023-04-20T23:48:08.436Z,72.25
2023-04-20T23:50:40.488Z,72.12
2023-04-20T23:53:12.479Z,71.50
2023-04-20T23:55:48.405Z,71.69
2023-04-20T23:58:20.460Z,71.99
